Flight Track Log - Related Links

Times and Time Zones

All times are in EDT time to prevent confusion due to time zone crossing. See the SKW2620 flight status page for this flight to view local times or setup timezone preferences in your user account.

Time Position Orientation Groundspeed Altitude Reporting Facility
EDT Latitude Longitude Course Direction KTS MPH feet Rate Location/Type
06:28PM 33.9333 -118.4500 239° Southwest 181 208 1,900  Level Southern California TRACON
06:29PM 33.9000 -118.5167 239° Southwest 265 305 4,100 2,298 Climbing Southern California TRACON
06:30PM 33.8578 -118.5381 203° Southwest 263 303 5,500 2,500 Climbing Los Angeles Center
06:31PM 33.7833 -118.5353 178° South 276 318 8,100 2,274 Climbing Los Angeles Center
06:32PM 33.7122 -118.5036 160° South 289 333 10,200 1,415 Climbing Los Angeles Center
06:33PM 33.6525 -118.3992 124° Southeast 326 375 11,000 390 Climbing Los Angeles Center
06:34PM 33.5992 -118.2983 122° Southeast 361 415 11,000  Level Los Angeles Center
06:35PM 33.5428 -118.1981 124° Southeast 364 419 11,000  Level Los Angeles Center
06:36PM 33.4883 -118.0969 123° Southeast 364 419 11,000  Level Los Angeles Center
06:37PM 33.4347 -117.9942 122° Southeast 364 419 11,000  Level Los Angeles Center
06:38PM 33.3819 -117.8922 122° Southeast 364 419 11,000  Level Los Angeles Center
06:39PM 33.3175 -117.7700 122° Southeast 364 419 11,000  Level Los Angeles Center
06:40PM 33.2628 -117.6700 123° Southeast 363 418 11,000  Level Los Angeles Center
06:41PM 33.1814 -117.5978 143° Southeast 364 419 11,000  Level Los Angeles Center
06:42PM 33.0997 -117.5214 142° Southeast 369 425 11,000 -97 Level Los Angeles Center
06:43PM 33.0211 -117.4369 138° Southeast 349 402 10,800 -774 Descending Los Angeles Center
06:44PM 32.9658 -117.3708 135° Southeast 291 335 9,400 -1,597 Descending Los Angeles Center
06:45PM 32.9167 -117.3000 130° Southeast 263 303 7,500 -1,220 Descending Southern California TRACON
06:46PM 32.8667 -117.2333 132° Southeast 260 299 6,900 -1,041 Descending Southern California TRACON
06:47PM 32.8167 -117.1833 140° Southeast 271 312 5,400 -968 Descending Southern California TRACON
06:48PM 32.7711 -117.1056 125° Southeast 247 284 4,900 -624 Descending Los Angeles Center
06:49PM 32.7500 -117.0333 109° East 232 267 4,100 -1,230 Descending Southern California TRACON
06:50PM 32.7000 -117.0667 209° Southwest 218 251 2,400 -1,400 Descending Southern California TRACON
06:51PM 32.7167 -117.1333 287° West 147 169 1,300 -1,000 Descending Southern California TRACON
06:52PM 32.7333 -117.1667 301° West 137 158 400 -885 Descending Southern California TRACON
06:54PM 32.7333 -117.1833 287° West  Level FlightAware Approximate
07:01PM 32.7336 -117.1897 287° West  Level Estimated

Login

Don't have an account? Register now (free) for customized features, flight alerts, and more!